Saint Louis, Missouri
Traffic Map
Current Weather Conditions
Saint Louis, Missouri
Clear
Clear
68°
Feels Like: 68°
Wind Chill: 68° Ceiling: Unl
Heat Index: 68° Visibility: 10mi
Dew Point: 64° Wind: 6mph
Humidity: 87% Direction: 150° (SSE)
Pressure: 30.02in Gusts: 0mph
Raw Report DataKCPS 291153Z 15005KT 10SM CLR 20/18 A3002 RMK AO2 SLP162 T02000178 10222 20194 55000
Traffic Incident Summary
Active as of:
Severity:
Category:
InformationThere was an issue retrieving the traffic information for this location. Please try a different location or try again shortly.
Advertisements
Track Severe Weather on mobile